Terminal Aerodrome Forecast
Issued by NWS

Home | Current Version | Previous Version | Text Only | Print | Product List | Glossary On
Versions: 1 2 3 4 5 6 7 8 9 10 11 12 13 14 15
000
FTUS44 KOUN 250307 AAB
TAFPNC
TAF AMD
KPNC 250307Z 2503/2524 16013G20KT P6SM FEW040 BKN250
     FM250400 18012G20KT 4SM -TSRA BR FEW007 BKN040CB
      TEMPO 2504/2506 3/4SM +TSRA BKN007CB
     FM250600 15010KT P6SM FEW007 BKN019
     FM251600 16012KT P6SM BKN035=

USA.gov is the U.S. government's official web portal to all federal, state and local government web resources and services.